createdAt,value
2017-04-26T00:00:49.621Z,2.68
2017-04-26T00:01:48.723Z,2.95
2017-04-26T00:02:47.732Z,2.55
2017-04-26T00:03:46.656Z,3.00
2017-04-26T00:04:45.656Z,3.10
2017-04-26T00:05:44.763Z,2.73
2017-04-26T00:06:44.598Z,3.45
2017-04-26T00:07:43.596Z,3.15
2017-04-26T00:08:43.325Z,2.68
2017-04-26T00:09:42.388Z,2.62
2017-04-26T00:10:41.856Z,2.62
2017-04-26T00:11:42.483Z,2.62
2017-04-26T00:12:42.797Z,3.00
2017-04-26T00:13:42.800Z,2.83
2017-04-26T00:14:42.969Z,3.52
2017-04-26T00:15:43.191Z,2.75
2017-04-26T00:16:42.692Z,2.98
2017-04-26T00:17:42.156Z,2.80
2017-04-26T00:18:42.580Z,2.82
2017-04-26T00:19:42.227Z,3.50
2017-04-26T00:20:41.269Z,2.53
2017-04-26T00:21:40.305Z,2.78
2017-04-26T00:22:39.324Z,3.30
2017-04-26T00:23:38.271Z,3.65
2017-04-26T00:24:38.020Z,2.97
2017-04-26T00:25:37.111Z,3.03
2017-04-26T00:26:36.136Z,3.35
2017-04-26T00:27:36.005Z,2.53
2017-04-26T00:28:34.945Z,3.58
2017-04-26T00:29:33.888Z,2.87
2017-04-26T00:30:32.899Z,3.25
2017-04-26T00:31:31.940Z,3.47
2017-04-26T00:32:30.923Z,2.80
2017-04-26T00:33:29.873Z,3.10
2017-04-26T00:34:28.855Z,3.10
2017-04-26T00:35:28.611Z,3.60
2017-04-26T00:36:27.599Z,3.33
2017-04-26T00:37:26.551Z,3.18
2017-04-26T00:38:25.559Z,2.90
2017-04-26T00:39:24.709Z,3.23
2017-04-26T00:40:23.657Z,3.42
2017-04-26T00:41:22.788Z,2.97
2017-04-26T00:42:21.752Z,2.67
2017-04-26T00:43:20.728Z,3.45
2017-04-26T00:44:19.720Z,2.88
2017-04-26T00:45:18.771Z,3.08
2017-04-26T00:46:17.755Z,3.18
2017-04-26T00:47:16.683Z,2.92
2017-04-26T00:48:15.720Z,2.58
2017-04-26T00:49:14.755Z,2.75
2017-04-26T00:50:14.696Z,2.90
2017-04-26T00:51:14.044Z,3.07
2017-04-26T00:52:13.019Z,3.48
2017-04-26T00:53:12.268Z,2.77
2017-04-26T00:54:12.499Z,3.18
2017-04-26T00:55:11.761Z,2.68
2017-04-26T00:56:10.804Z,3.53
2017-04-26T00:57:09.768Z,3.05
2017-04-26T00:58:08.800Z,3.15
2017-04-26T00:59:07.715Z,2.85
2017-04-26T01:00:06.745Z,3.15
2017-04-26T01:01:06.665Z,2.98
2017-04-26T01:02:05.592Z,2.40
2017-04-26T01:03:05.231Z,3.32
2017-04-26T01:04:04.206Z,2.95
2017-04-26T01:05:03.188Z,2.82
2017-04-26T01:06:02.233Z,2.98
2017-04-26T01:07:01.223Z,3.00
2017-04-26T01:08:00.180Z,2.90
2017-04-26T01:08:59.232Z,2.17
2017-04-26T01:09:58.351Z,3.67
2017-04-26T01:10:58.104Z,3.27
2017-04-26T01:11:57.126Z,3.53
2017-04-26T01:12:56.169Z,3.20
2017-04-26T01:13:55.156Z,2.98
2017-04-26T01:14:54.153Z,3.35
2017-04-26T01:15:53.948Z,3.25
2017-04-26T01:16:53.679Z,2.95
2017-04-26T01:17:52.728Z,3.18
2017-04-26T01:18:52.530Z,2.78
2017-04-26T01:19:51.552Z,3.00
2017-04-26T01:20:50.540Z,3.30
2017-04-26T01:21:49.653Z,2.95
2017-04-26T01:22:49.436Z,2.78
2017-04-26T01:23:49.129Z,2.70
2017-04-26T01:24:48.869Z,2.87
2017-04-26T01:25:48.543Z,3.02
2017-04-26T01:26:47.541Z,3.18
2017-04-26T01:27:46.573Z,2.80
2017-04-26T01:28:46.357Z,3.03
2017-04-26T01:29:46.188Z,3.25
2017-04-26T01:30:45.227Z,2.68
2017-04-26T01:31:44.158Z,3.45
2017-04-26T01:32:43.370Z,3.27
2017-04-26T01:33:42.412Z,2.75
2017-04-26T01:34:42.343Z,3.40
2017-04-26T01:35:41.963Z,2.82
2017-04-26T01:36:41.787Z,3.00
2017-04-26T01:37:40.740Z,3.20
2017-04-26T01:38:40.460Z,2.90
2017-04-26T01:39:39.395Z,2.92
2017-04-26T01:40:38.241Z,2.60
2017-04-26T01:41:37.357Z,2.78
2017-04-26T01:42:37.124Z,2.63
2017-04-26T01:43:36.092Z,2.45
2017-04-26T01:44:35.035Z,2.75
2017-04-26T01:45:33.896Z,3.42
2017-04-26T01:46:33.465Z,3.25
2017-04-26T01:47:32.267Z,2.65
2017-04-26T01:48:31.119Z,3.48
2017-04-26T01:49:30.688Z,2.75
2017-04-26T01:50:29.515Z,3.75
2017-04-26T01:51:28.286Z,3.68
2017-04-26T01:52:27.068Z,2.97
2017-04-26T01:53:25.871Z,2.83
2017-04-26T01:54:24.651Z,3.37
2017-04-26T01:55:23.431Z,3.15
2017-04-26T01:56:22.223Z,3.38
2017-04-26T01:57:21.736Z,3.70
2017-04-26T01:58:20.487Z,3.58
2017-04-26T01:59:20.036Z,3.35
2017-04-26T02:00:18.919Z,3.30
2017-04-26T02:01:17.686Z,3.50
2017-04-26T02:02:16.451Z,3.73
2017-04-26T02:03:15.242Z,4.43
2017-04-26T02:04:14.003Z,3.75
2017-04-26T02:05:13.535Z,3.52
2017-04-26T02:06:13.367Z,3.45
2017-04-26T02:07:12.812Z,3.13
2017-04-26T02:08:12.316Z,3.57
2017-04-26T02:09:11.699Z,3.23
2017-04-26T02:10:10.523Z,3.72
2017-04-26T02:11:09.291Z,3.58
2017-04-26T02:12:08.095Z,4.15
2017-04-26T02:13:07.587Z,3.23
2017-04-26T02:14:07.098Z,3.68
2017-04-26T02:15:05.952Z,3.48
2017-04-26T02:16:05.479Z,3.60
2017-04-26T02:17:04.299Z,3.78
2017-04-26T02:18:03.155Z,3.13
2017-04-26T02:19:01.963Z,3.70
2017-04-26T02:20:01.567Z,3.60
2017-04-26T02:21:00.350Z,3.77
2017-04-26T02:21:59.175Z,4.63
2017-04-26T02:22:57.977Z,3.78
2017-04-26T02:23:56.837Z,3.73
2017-04-26T02:24:56.348Z,4.87
2017-04-26T02:25:55.147Z,4.23
2017-04-26T02:26:53.934Z,4.62
2017-04-26T02:27:52.738Z,4.10
2017-04-26T02:28:51.583Z,3.77
2017-04-26T02:29:50.439Z,4.25
2017-04-26T02:30:49.195Z,4.38
2017-04-26T02:31:47.979Z,4.32
2017-04-26T02:32:46.810Z,4.13
2017-04-26T02:33:46.401Z,4.32
2017-04-26T02:34:45.187Z,4.25
2017-04-26T02:35:43.995Z,4.30
2017-04-26T02:36:43.319Z,4.40
2017-04-26T02:37:42.769Z,4.98
2017-04-26T02:38:42.143Z,4.67
2017-04-26T02:39:41.580Z,4.95
2017-04-26T02:40:41.942Z,4.28
2017-04-26T02:41:40.719Z,4.40
2017-04-26T02:42:40.243Z,4.63
2017-04-26T02:43:39.015Z,5.13
2017-04-26T02:44:37.827Z,4.87
2017-04-26T02:45:36.634Z,4.85
2017-04-26T02:46:35.423Z,4.22
2017-04-26T02:47:34.219Z,4.97
2017-04-26T02:48:33.467Z,4.17
2017-04-26T02:49:32.284Z,4.83
2017-04-26T02:50:31.103Z,4.73
2017-04-26T02:51:29.887Z,4.22
2017-04-26T02:52:28.727Z,5.07
2017-04-26T02:53:27.555Z,3.93
2017-04-26T02:54:27.087Z,4.43
2017-04-26T02:55:25.844Z,4.67
2017-04-26T02:56:24.587Z,4.48
2017-04-26T02:57:24.083Z,4.68
2017-04-26T02:58:23.596Z,4.45
2017-04-26T02:59:22.463Z,4.80
2017-04-26T03:00:21.364Z,4.45
2017-04-26T03:01:20.135Z,4.45
2017-04-26T03:02:19.252Z,4.40
2017-04-26T03:03:18.067Z,4.42
2017-04-26T03:04:16.904Z,5.20
2017-04-26T03:05:15.858Z,4.87
2017-04-26T03:06:14.692Z,4.30
2017-04-26T03:07:13.462Z,4.87
2017-04-26T03:08:12.297Z,4.77
2017-04-26T03:09:12.375Z,4.87
2017-04-26T03:10:11.643Z,4.77
2017-04-26T03:11:10.423Z,5.20
2017-04-26T03:12:09.182Z,4.90
2017-04-26T03:13:08.690Z,5.22
2017-04-26T03:14:07.466Z,4.47
2017-04-26T03:15:06.247Z,5.05
2017-04-26T03:16:05.036Z,4.88
2017-04-26T03:17:04.687Z,4.25
2017-04-26T03:18:03.543Z,4.40
2017-04-26T03:19:02.302Z,5.12
2017-04-26T03:20:01.079Z,5.40
2017-04-26T03:21:06.607Z,4.78
2017-04-26T03:22:05.586Z,5.32
2017-04-26T03:23:04.427Z,5.42
2017-04-26T03:24:03.960Z,4.35
2017-04-26T03:25:02.739Z,5.52
2017-04-26T03:26:01.544Z,4.97
2017-04-26T03:27:00.346Z,5.10
2017-04-26T03:27:59.167Z,5.20
2017-04-26T03:28:57.911Z,4.25
2017-04-26T03:29:56.661Z,4.97
2017-04-26T03:30:55.439Z,4.98
2017-04-26T03:31:54.178Z,4.73
2017-04-26T03:32:52.997Z,4.63
2017-04-26T03:33:51.790Z,4.60
2017-04-26T03:34:50.570Z,4.10
2017-04-26T03:35:49.387Z,4.17
2017-04-26T03:36:48.235Z,5.10
2017-04-26T03:37:47.020Z,5.63
2017-04-26T03:38:46.558Z,5.05
2017-04-26T03:39:45.362Z,5.15
2017-04-26T03:40:44.116Z,4.40
2017-04-26T03:41:42.935Z,4.98
2017-04-26T03:42:42.726Z,4.98
2017-04-26T03:43:42.890Z,4.83
2017-04-26T03:44:42.348Z,5.03
2017-04-26T03:45:41.762Z,5.52
2017-04-26T03:46:40.542Z,5.13
2017-04-26T03:47:39.303Z,4.82
2017-04-26T03:48:38.091Z,4.50
2017-04-26T03:49:36.888Z,4.35
2017-04-26T03:50:36.426Z,4.50
2017-04-26T03:51:35.220Z,4.52
2017-04-26T03:52:33.959Z,3.80
2017-04-26T03:53:32.724Z,4.12
2017-04-26T03:54:31.535Z,3.43
2017-04-26T03:55:30.352Z,4.17
2017-04-26T03:56:29.107Z,3.77
2017-04-26T03:57:28.635Z,3.58
2017-04-26T03:58:27.435Z,3.37
2017-04-26T03:59:26.208Z,3.38
2017-04-26T04:00:25.032Z,3.60
2017-04-26T04:01:23.839Z,4.27
2017-04-26T04:02:22.671Z,3.83
2017-04-26T04:03:21.510Z,4.27
2017-04-26T04:04:20.352Z,3.50
2017-04-26T04:05:19.207Z,3.35
2017-04-26T04:06:18.014Z,3.85
2017-04-26T04:07:16.815Z,3.70
2017-04-26T04:08:16.323Z,3.73
2017-04-26T04:09:15.908Z,2.88
2017-04-26T04:10:15.423Z,3.57
2017-04-26T04:11:14.215Z,3.98
2017-04-26T04:12:14.023Z,3.78
2017-04-26T04:13:13.533Z,3.93
2017-04-26T04:14:13.884Z,3.70
2017-04-26T04:15:13.452Z,4.23
2017-04-26T04:16:13.951Z,4.17
2017-04-26T04:17:13.532Z,3.83
2017-04-26T04:18:12.307Z,5.02
2017-04-26T04:19:11.776Z,4.05
2017-04-26T04:20:10.619Z,3.27
2017-04-26T04:21:09.427Z,3.88
2017-04-26T04:22:08.186Z,4.53
2017-04-26T04:23:06.984Z,3.47
2017-04-26T04:24:05.779Z,3.90
2017-04-26T04:25:05.399Z,4.27
2017-04-26T04:26:04.167Z,4.23
2017-04-26T04:27:03.047Z,3.93
2017-04-26T04:28:01.862Z,3.98
2017-04-26T04:29:00.643Z,4.42
2017-04-26T04:30:00.191Z,3.83
2017-04-26T04:30:58.943Z,4.18
2017-04-26T04:31:57.687Z,4.03
2017-04-26T04:32:56.451Z,3.98
2017-04-26T04:33:55.967Z,4.88
2017-04-26T04:34:54.734Z,4.32
2017-04-26T04:35:53.519Z,4.78
2017-04-26T04:36:52.276Z,4.73
2017-04-26T04:37:51.076Z,4.25
2017-04-26T04:38:49.847Z,3.52
2017-04-26T04:39:48.672Z,3.70
2017-04-26T04:40:48.187Z,4.18
2017-04-26T04:41:47.018Z,4.58
2017-04-26T04:42:45.867Z,4.15
2017-04-26T04:43:44.667Z,4.33
2017-04-26T04:44:44.263Z,4.32
2017-04-26T04:45:43.574Z,3.90
2017-04-26T04:46:42.679Z,4.27
2017-04-26T04:47:41.723Z,4.15
2017-04-26T04:48:40.535Z,4.37
2017-04-26T04:49:39.371Z,4.32
2017-04-26T04:50:38.142Z,4.43
2017-04-26T04:51:37.739Z,4.12
2017-04-26T04:52:36.491Z,5.02
2017-04-26T04:53:35.984Z,4.80
2017-04-26T04:54:35.495Z,4.73
2017-04-26T04:55:34.227Z,4.70
2017-04-26T04:56:33.020Z,5.25
2017-04-26T04:57:32.531Z,3.90
2017-04-26T04:58:31.308Z,4.35
2017-04-26T04:59:30.067Z,4.60
2017-04-26T05:00:28.867Z,4.55
2017-04-26T05:01:27.655Z,4.15
2017-04-26T05:02:26.487Z,5.17
2017-04-26T05:03:25.244Z,4.67
2017-04-26T05:04:24.100Z,4.77
2017-04-26T05:05:23.623Z,3.75
2017-04-26T05:06:22.375Z,4.32
2017-04-26T05:07:21.878Z,4.45
2017-04-26T05:08:20.719Z,4.32
2017-04-26T05:09:19.496Z,3.67
2017-04-26T05:10:18.305Z,3.48
2017-04-26T05:11:17.063Z,4.17
2017-04-26T05:12:15.868Z,4.72
2017-04-26T05:13:14.683Z,4.63
2017-04-26T05:14:14.336Z,3.82
2017-04-26T05:15:13.863Z,4.37
2017-04-26T05:16:14.019Z,4.47
2017-04-26T05:17:13.547Z,3.55
2017-04-26T05:18:12.344Z,4.27
2017-04-26T05:19:12.927Z,4.90
2017-04-26T05:20:12.242Z,5.05
2017-04-26T05:21:11.360Z,4.78
2017-04-26T05:22:10.150Z,4.70
2017-04-26T05:23:08.899Z,4.47
2017-04-26T05:24:07.663Z,4.07
2017-04-26T05:25:06.483Z,3.93
2017-04-26T05:26:05.287Z,3.55
2017-04-26T05:27:04.072Z,4.20
2017-04-26T05:28:02.859Z,3.93
2017-04-26T05:29:01.611Z,4.37
2017-04-26T05:30:00.402Z,4.68
2017-04-26T05:30:59.215Z,4.95
2017-04-26T05:31:57.971Z,4.85
2017-04-26T05:32:56.839Z,4.80
2017-04-26T05:33:55.639Z,3.97
2017-04-26T05:34:55.168Z,4.30
2017-04-26T05:35:53.963Z,4.18
2017-04-26T05:36:52.779Z,4.37
2017-04-26T05:37:52.291Z,4.82
2017-04-26T05:38:51.079Z,4.20
2017-04-26T05:39:49.833Z,4.05
2017-04-26T05:40:48.639Z,3.58
2017-04-26T05:41:47.472Z,4.12
2017-04-26T05:42:46.271Z,4.10
2017-04-26T05:43:45.051Z,4.77
2017-04-26T05:44:44.779Z,4.93
2017-04-26T05:45:44.315Z,3.83
2017-04-26T05:46:43.314Z,4.67
2017-04-26T05:47:42.672Z,4.63
2017-04-26T05:48:41.848Z,4.52
2017-04-26T05:49:40.673Z,4.80
2017-04-26T05:50:39.454Z,4.55
2017-04-26T05:51:38.271Z,4.77
2017-04-26T05:52:37.031Z,3.77
2017-04-26T05:53:35.839Z,4.77
2017-04-26T05:54:35.420Z,4.30
2017-04-26T05:55:34.251Z,4.30
2017-04-26T05:56:33.780Z,4.08
2017-04-26T05:57:32.523Z,4.62
2017-04-26T05:58:31.284Z,4.27
2017-04-26T05:59:30.804Z,3.20
2017-04-26T06:00:29.621Z,3.92
2017-04-26T06:01:28.379Z,4.18
2017-04-26T06:02:27.236Z,4.00
2017-04-26T06:03:26.031Z,4.05
2017-04-26T06:04:24.818Z,4.18
2017-04-26T06:05:23.566Z,3.40
2017-04-26T06:06:22.366Z,3.75
2017-04-26T06:07:21.879Z,3.40
2017-04-26T06:08:20.687Z,3.30
2017-04-26T06:09:19.495Z,3.63
2017-04-26T06:10:18.293Z,2.92
2017-04-26T06:11:17.070Z,3.53
2017-04-26T06:12:15.871Z,3.75
2017-04-26T06:13:14.615Z,3.95
2017-04-26T06:14:14.097Z,3.20
2017-04-26T06:15:13.806Z,3.65
2017-04-26T06:16:14.074Z,3.63
2017-04-26T06:17:14.459Z,3.38
2017-04-26T06:18:13.896Z,3.25
2017-04-26T06:19:14.152Z,3.52
2017-04-26T06:20:12.947Z,3.25
2017-04-26T06:21:12.299Z,3.35
2017-04-26T06:22:11.799Z,3.10
2017-04-26T06:23:10.634Z,3.22
2017-04-26T06:24:09.439Z,3.40
2017-04-26T06:25:08.230Z,3.25
2017-04-26T06:26:07.015Z,3.28
2017-04-26T06:27:06.530Z,3.27
2017-04-26T06:28:05.318Z,3.30
2017-04-26T06:29:04.115Z,2.57
2017-04-26T06:30:02.926Z,2.60
2017-04-26T06:31:02.431Z,2.23
2017-04-26T06:32:01.222Z,2.17
2017-04-26T06:32:59.998Z,2.65
2017-04-26T06:33:58.836Z,2.37
2017-04-26T06:34:58.356Z,2.30
2017-04-26T06:35:57.331Z,1.88
2017-04-26T06:36:56.122Z,1.78
2017-04-26T06:37:54.935Z,1.82
2017-04-26T06:38:54.543Z,2.38
2017-04-26T06:39:53.335Z,1.95
2017-04-26T06:40:52.083Z,2.43
2017-04-26T06:41:51.611Z,2.92
2017-04-26T06:42:50.451Z,2.67
2017-04-26T06:43:49.264Z,1.82
2017-04-26T06:44:48.067Z,1.37
2017-04-26T06:45:46.922Z,1.22
2017-04-26T06:46:46.425Z,1.30
2017-04-26T06:47:45.282Z,1.42
2017-04-26T06:48:44.051Z,1.92
2017-04-26T06:49:43.509Z,1.77
2017-04-26T06:50:45.872Z,1.28
2017-04-26T06:51:44.786Z,1.27
2017-04-26T06:52:43.975Z,1.50
2017-04-26T06:53:43.410Z,1.53
2017-04-26T06:54:42.759Z,1.55
2017-04-26T06:55:42.359Z,1.40
2017-04-26T06:56:42.871Z,1.65
2017-04-26T06:57:43.224Z,1.47
2017-04-26T06:58:42.356Z,1.43
2017-04-26T06:59:42.683Z,1.25
2017-04-26T07:00:42.090Z,1.52
2017-04-26T07:01:40.901Z,1.30
2017-04-26T07:02:43.639Z,1.70
2017-04-26T07:03:42.827Z,1.55
2017-04-26T07:04:42.474Z,1.52
2017-04-26T07:05:41.817Z,1.38
2017-04-26T07:06:40.611Z,2.37
2017-04-26T07:07:40.131Z,1.80
2017-04-26T07:08:38.963Z,1.55
2017-04-26T07:09:37.782Z,1.73
2017-04-26T07:10:36.515Z,1.32
2017-04-26T07:11:35.355Z,2.07
2017-04-26T07:12:34.231Z,2.15
2017-04-26T07:13:33.014Z,1.45
2017-04-26T07:14:31.786Z,1.20
2017-04-26T07:15:30.547Z,1.25
2017-04-26T07:16:29.367Z,1.47
2017-04-26T07:17:28.967Z,1.75
2017-04-26T07:18:27.798Z,1.63
2017-04-26T07:19:26.573Z,1.45
2017-04-26T07:20:25.443Z,1.70
2017-04-26T07:21:24.228Z,1.40
2017-04-26T07:22:23.805Z,1.92
2017-04-26T07:23:22.623Z,1.63
2017-04-26T07:24:21.435Z,1.53
2017-04-26T07:25:20.874Z,1.65
2017-04-26T07:26:19.739Z,1.65
2017-04-26T07:27:18.547Z,1.20
2017-04-26T07:28:17.343Z,1.22
2017-04-26T07:29:16.122Z,1.27
2017-04-26T07:30:15.115Z,1.87
2017-04-26T07:31:13.918Z,0.93
2017-04-26T07:32:13.467Z,1.53
2017-04-26T07:33:13.058Z,1.83
2017-04-26T07:34:12.659Z,1.78
2017-04-26T07:35:12.971Z,1.43
2017-04-26T07:36:12.867Z,1.65
2017-04-26T07:37:12.814Z,1.38
2017-04-26T07:38:12.237Z,1.30
2017-04-26T07:39:11.379Z,1.80
2017-04-26T07:40:10.132Z,1.67
2017-04-26T07:41:08.935Z,1.47
2017-04-26T07:42:07.755Z,1.42
2017-04-26T07:43:07.275Z,1.37
2017-04-26T07:44:06.104Z,2.07
2017-04-26T07:45:05.031Z,1.58
2017-04-26T07:46:03.831Z,1.02
2017-04-26T07:47:02.619Z,1.83
2017-04-26T07:48:01.401Z,1.42
2017-04-26T07:49:00.935Z,1.60
2017-04-26T07:49:59.723Z,1.25
2017-04-26T07:50:58.499Z,1.47
2017-04-26T07:51:57.292Z,1.65
2017-04-26T07:52:56.199Z,0.85
2017-04-26T07:53:55.038Z,1.62
2017-04-26T07:54:53.851Z,1.47
2017-04-26T07:55:52.725Z,1.65
2017-04-26T07:56:51.540Z,0.88
2017-04-26T07:57:50.330Z,1.80
2017-04-26T07:58:49.256Z,1.42
2017-04-26T07:59:48.058Z,1.45
2017-04-26T08:00:46.811Z,1.38
2017-04-26T08:01:45.603Z,1.88
2017-04-26T08:02:44.359Z,1.58
2017-04-26T08:03:43.679Z,1.52
2017-04-26T08:04:43.447Z,1.48
2017-04-26T08:05:42.975Z,1.13
2017-04-26T08:06:42.730Z,1.22
2017-04-26T08:07:41.979Z,1.50
2017-04-26T08:08:40.794Z,2.07
2017-04-26T08:09:39.587Z,1.57
2017-04-26T08:10:38.407Z,1.62
2017-04-26T08:11:37.191Z,1.73
2017-04-26T08:12:35.998Z,1.32
2017-04-26T08:13:34.779Z,1.77
2017-04-26T08:14:41.487Z,1.40
2017-04-26T08:15:40.315Z,1.07
2017-04-26T08:16:39.832Z,1.20
2017-04-26T08:17:38.723Z,1.47
2017-04-26T08:18:37.533Z,1.62
2017-04-26T08:19:36.299Z,1.95
2017-04-26T08:20:35.063Z,1.62
2017-04-26T08:21:33.875Z,1.33
2017-04-26T08:22:33.423Z,1.13
2017-04-26T08:23:38.951Z,1.42
2017-04-26T08:24:37.690Z,1.43
2017-04-26T08:25:36.478Z,1.62
2017-04-26T08:26:35.323Z,1.32
2017-04-26T08:27:34.091Z,1.35
2017-04-26T08:28:33.587Z,1.43
2017-04-26T08:29:32.427Z,1.48
2017-04-26T08:30:31.174Z,1.67
2017-04-26T08:31:29.946Z,1.67
2017-04-26T08:32:28.803Z,1.60
2017-04-26T08:33:27.574Z,1.15
2017-04-26T08:34:27.523Z,1.55
2017-04-26T08:35:27.143Z,1.30
2017-04-26T08:36:26.123Z,1.18
2017-04-26T08:37:25.172Z,1.23
2017-04-26T08:38:24.136Z,1.53
2017-04-26T08:39:23.927Z,1.32
2017-04-26T08:40:22.907Z,1.68
2017-04-26T08:41:22.878Z,1.43
2017-04-26T08:42:22.116Z,1.75
2017-04-26T08:43:21.136Z,1.82
2017-04-26T08:44:20.136Z,1.55
2017-04-26T08:45:19.788Z,1.63
2017-04-26T08:46:18.840Z,2.00
2017-04-26T08:47:17.828Z,1.55
2017-04-26T08:48:16.807Z,1.55
2017-04-26T08:49:15.856Z,1.48
2017-04-26T08:50:14.963Z,1.63
2017-04-26T08:51:14.631Z,1.87
2017-04-26T08:52:14.130Z,1.35
2017-04-26T08:53:13.637Z,1.35
2017-04-26T08:54:13.428Z,1.38
2017-04-26T08:55:12.935Z,1.78
2017-04-26T08:56:11.860Z,1.60
2017-04-26T08:57:10.788Z,1.45
2017-04-26T08:58:09.700Z,1.48
2017-04-26T08:59:09.492Z,1.58
2017-04-26T09:00:09.268Z,1.47
2017-04-26T09:01:08.284Z,1.32
2017-04-26T09:02:07.356Z,1.25
2017-04-26T09:03:07.091Z,1.73
2017-04-26T09:04:06.024Z,1.17
2017-04-26T09:05:05.828Z,0.92
2017-04-26T09:06:04.816Z,1.45
2017-04-26T09:07:03.889Z,1.10
2017-04-26T09:08:02.888Z,1.37
2017-04-26T09:09:01.915Z,1.93
2017-04-26T09:10:01.571Z,1.35
2017-04-26T09:11:00.548Z,1.05
2017-04-26T09:12:00.308Z,1.33
2017-04-26T09:12:59.331Z,1.65
2017-04-26T09:13:58.366Z,1.63
2017-04-26T09:14:57.276Z,1.85
2017-04-26T09:15:56.280Z,1.58
2017-04-26T09:16:55.979Z,1.87
2017-04-26T09:17:55.675Z,1.03
2017-04-26T09:18:55.343Z,1.43
2017-04-26T09:19:54.965Z,1.38
2017-04-26T09:20:54.654Z,1.53
2017-04-26T09:21:54.380Z,1.70
2017-04-26T09:22:53.447Z,1.93
2017-04-26T09:23:52.415Z,1.82
2017-04-26T09:24:51.424Z,1.58
2017-04-26T09:25:50.348Z,1.55
2017-04-26T09:26:49.328Z,1.65
2017-04-26T09:27:49.019Z,2.83
2017-04-26T09:28:48.732Z,2.03
2017-04-26T09:29:47.688Z,2.02
2017-04-26T09:30:47.443Z,2.72
2017-04-26T09:31:46.383Z,2.35
2017-04-26T09:32:45.335Z,2.03
2017-04-26T09:33:45.067Z,2.27
2017-04-26T09:34:44.623Z,2.30
2017-04-26T09:35:44.186Z,2.42
2017-04-26T09:36:43.515Z,2.48
2017-04-26T09:37:43.062Z,2.35
2017-04-26T09:38:42.608Z,2.07
2017-04-26T09:39:41.836Z,2.00
2017-04-26T09:40:40.884Z,2.42
2017-04-26T09:41:39.923Z,3.43
2017-04-26T09:42:38.915Z,3.10
2017-04-26T09:43:37.907Z,2.85
2017-04-26T09:44:36.905Z,3.33
2017-04-26T09:45:35.843Z,2.97
2017-04-26T09:46:34.769Z,3.03
2017-04-26T09:47:33.776Z,3.50
2017-04-26T09:48:33.824Z,3.73
2017-04-26T09:49:32.743Z,4.00
2017-04-26T09:50:32.468Z,2.58
2017-04-26T09:51:31.387Z,2.78
2017-04-26T09:52:30.343Z,2.88
2017-04-26T09:53:29.368Z,2.70
2017-04-26T09:54:29.134Z,3.75
2017-04-26T09:55:28.182Z,2.85
2017-04-26T09:56:27.133Z,3.92
2017-04-26T09:57:26.789Z,3.58
2017-04-26T09:58:25.903Z,3.32
2017-04-26T09:59:24.931Z,3.62
2017-04-26T10:00:23.904Z,2.77
2017-04-26T10:01:23.764Z,3.62
2017-04-26T10:02:22.719Z,3.08
2017-04-26T10:03:22.402Z,3.22
2017-04-26T10:04:22.135Z,3.88
2017-04-26T10:05:21.207Z,3.13
2017-04-26T10:06:20.130Z,3.03
2017-04-26T10:07:19.900Z,3.27
2017-04-26T10:08:18.924Z,3.15
2017-04-26T10:09:18.595Z,3.13
2017-04-26T10:10:17.595Z,3.07
2017-04-26T10:11:17.285Z,3.07
2017-04-26T10:12:17.015Z,2.93
2017-04-26T10:13:16.087Z,3.63
2017-04-26T10:14:17.247Z,3.03
2017-04-26T10:15:14.683Z,3.57
2017-04-26T10:16:14.347Z,3.08
2017-04-26T10:17:13.599Z,2.60
2017-04-26T10:18:13.997Z,3.08
2017-04-26T10:19:13.567Z,3.40
2017-04-26T10:20:12.916Z,2.87
2017-04-26T10:21:12.372Z,2.95
2017-04-26T10:22:11.728Z,3.00
2017-04-26T10:23:10.745Z,2.98
2017-04-26T10:24:09.672Z,3.45
2017-04-26T10:25:08.655Z,3.42
2017-04-26T10:26:07.595Z,3.12
2017-04-26T10:27:06.604Z,2.85
2017-04-26T10:28:05.569Z,3.28
2017-04-26T10:29:04.556Z,2.47
2017-04-26T10:30:03.515Z,3.08
2017-04-26T10:31:02.444Z,2.97
2017-04-26T10:32:01.952Z,3.00
2017-04-26T10:33:00.960Z,3.18
2017-04-26T10:34:00.252Z,3.18
2017-04-26T10:34:59.069Z,2.30
2017-04-26T10:35:58.777Z,2.82
2017-04-26T10:36:57.757Z,2.80
2017-04-26T10:37:56.752Z,2.73
2017-04-26T10:38:56.240Z,3.48
2017-04-26T10:39:55.214Z,2.98
2017-04-26T10:40:54.340Z,2.75
2017-04-26T10:41:53.587Z,3.05
2017-04-26T10:42:52.776Z,3.22
2017-04-26T10:43:51.783Z,3.25
2017-04-26T10:44:50.831Z,3.20
2017-04-26T10:45:49.937Z,2.42
2017-04-26T10:46:49.252Z,3.02
2017-04-26T10:47:48.383Z,2.70
2017-04-26T10:48:47.400Z,2.58
2017-04-26T10:49:47.217Z,3.10
2017-04-26T10:50:46.434Z,2.68
2017-04-26T10:51:45.551Z,2.75
2017-04-26T10:52:45.316Z,2.90
2017-04-26T10:53:44.299Z,3.50
2017-04-26T10:54:43.629Z,2.82
2017-04-26T10:55:43.249Z,2.97
2017-04-26T10:56:43.076Z,2.18
2017-04-26T10:57:42.704Z,2.77
2017-04-26T10:58:42.495Z,2.72
2017-04-26T10:59:42.993Z,2.47
2017-04-26T11:00:42.744Z,2.07
2017-04-26T11:01:42.508Z,2.17
2017-04-26T11:02:42.543Z,2.63
2017-04-26T11:03:42.176Z,1.75
2017-04-26T11:04:44.337Z,2.12
2017-04-26T11:05:44.991Z,2.70
2017-04-26T11:06:44.531Z,1.85
2017-04-26T11:07:44.360Z,1.80
2017-04-26T11:08:43.965Z,2.10
2017-04-26T11:09:43.571Z,1.68
2017-04-26T11:10:42.928Z,1.72
2017-04-26T11:11:41.948Z,2.13
2017-04-26T11:12:41.652Z,1.85
2017-04-26T11:13:40.592Z,2.27
2017-04-26T11:14:39.522Z,1.82
2017-04-26T11:15:38.476Z,2.60
2017-04-26T11:16:37.513Z,1.92
2017-04-26T11:17:36.456Z,1.87
2017-04-26T11:18:36.235Z,1.82
2017-04-26T11:19:36.108Z,1.77
2017-04-26T11:20:35.133Z,1.40
2017-04-26T11:21:35.015Z,1.37
2017-04-26T11:22:34.679Z,1.40
2017-04-26T11:23:33.664Z,1.58
2017-04-26T11:24:32.696Z,1.50
2017-04-26T11:25:31.708Z,1.63
2017-04-26T11:26:30.692Z,1.35
2017-04-26T11:27:29.695Z,1.57
2017-04-26T11:28:29.407Z,1.50
2017-04-26T11:29:28.488Z,1.47
2017-04-26T11:30:27.547Z,1.33
2017-04-26T11:31:27.263Z,1.55
2017-04-26T11:32:26.285Z,2.05
2017-04-26T11:33:25.215Z,1.30
2017-04-26T11:34:24.194Z,1.22
2017-04-26T11:35:23.117Z,1.10
2017-04-26T11:36:22.326Z,1.60
2017-04-26T11:37:21.996Z,1.55
2017-04-26T11:38:21.044Z,1.92
2017-04-26T11:39:20.093Z,1.07
2017-04-26T11:40:19.028Z,1.03
2017-04-26T11:41:18.039Z,1.10
2017-04-26T11:42:17.101Z,1.33
2017-04-26T11:43:16.841Z,0.88
2017-04-26T11:44:16.485Z,0.80
2017-04-26T11:45:16.420Z,1.28
2017-04-26T11:46:15.408Z,1.40
2017-04-26T11:47:14.347Z,0.93
2017-04-26T11:48:14.963Z,0.90
2017-04-26T11:49:14.892Z,0.70
2017-04-26T11:50:14.820Z,1.20
2017-04-26T11:51:14.231Z,1.18
2017-04-26T11:52:14.011Z,1.15
2017-04-26T11:53:13.941Z,1.15
2017-04-26T11:54:14.372Z,0.98
2017-04-26T11:55:13.848Z,1.15
2017-04-26T11:56:13.036Z,1.02
2017-04-26T11:57:12.287Z,1.20
2017-04-26T11:58:11.945Z,1.78
2017-04-26T11:59:10.948Z,0.90
2017-04-26T12:00:09.924Z,1.02
2017-04-26T12:01:08.972Z,1.02
2017-04-26T12:02:08.774Z,1.18
2017-04-26T12:03:07.755Z,0.72
2017-04-26T12:04:06.698Z,0.95
2017-04-26T12:05:05.497Z,1.23
2017-04-26T12:06:04.330Z,1.30
2017-04-26T12:07:03.863Z,1.13
2017-04-26T12:08:02.650Z,1.15
2017-04-26T12:09:01.466Z,0.85
2017-04-26T12:10:00.967Z,1.20
2017-04-26T12:10:59.767Z,1.35
2017-04-26T12:11:58.576Z,1.18
2017-04-26T12:12:58.109Z,1.33
2017-04-26T12:13:56.872Z,0.93
2017-04-26T12:14:55.971Z,1.10
2017-04-26T12:15:54.749Z,1.18
2017-04-26T12:16:53.539Z,0.78
2017-04-26T12:17:52.431Z,1.08
2017-04-26T12:18:51.223Z,1.07
2017-04-26T12:19:50.752Z,0.73
2017-04-26T12:20:49.543Z,0.93
2017-04-26T12:21:48.359Z,1.47
2017-04-26T12:22:47.891Z,1.43
2017-04-26T12:23:46.655Z,1.12
2017-04-26T12:24:45.466Z,1.27
2017-04-26T12:25:44.264Z,1.40
2017-04-26T12:26:44.631Z,1.07
2017-04-26T12:27:44.099Z,1.13
2017-04-26T12:28:43.795Z,1.03
2017-04-26T12:29:42.871Z,0.80
2017-04-26T12:30:42.403Z,1.00
2017-04-26T12:31:41.767Z,1.23
2017-04-26T12:32:40.542Z,0.90
2017-04-26T12:33:39.335Z,2.08
2017-04-26T12:34:38.135Z,1.25
2017-04-26T12:35:37.686Z,1.30
2017-04-26T12:36:36.503Z,1.32
2017-04-26T12:37:35.274Z,1.08
2017-04-26T12:38:35.087Z,1.68
2017-04-26T12:39:33.896Z,1.20
2017-04-26T12:40:32.662Z,0.62
2017-04-26T12:41:31.456Z,1.08
2017-04-26T12:42:30.250Z,1.00
2017-04-26T12:43:29.023Z,0.97
2017-04-26T12:44:28.819Z,1.02
2017-04-26T12:45:27.719Z,1.18
2017-04-26T12:46:26.555Z,1.28
2017-04-26T12:47:26.103Z,0.98
2017-04-26T12:48:24.970Z,1.03
2017-04-26T12:49:23.744Z,0.90
2017-04-26T12:50:22.484Z,1.15
2017-04-26T12:51:21.235Z,1.30
2017-04-26T12:52:20.715Z,0.83
2017-04-26T12:53:20.267Z,1.00
2017-04-26T12:54:19.045Z,1.07
2017-04-26T12:55:17.822Z,1.12
2017-04-26T12:56:16.615Z,0.93
2017-04-26T12:57:16.087Z,1.05
2017-04-26T12:58:14.879Z,0.98
2017-04-26T12:59:14.583Z,0.73
2017-04-26T13:00:14.143Z,1.00
2017-04-26T13:01:13.572Z,1.47
2017-04-26T13:02:13.015Z,0.77
2017-04-26T13:03:12.387Z,1.43
2017-04-26T13:04:11.688Z,1.08
2017-04-26T13:05:12.654Z,1.08
2017-04-26T13:06:12.159Z,1.33
2017-04-26T13:07:10.894Z,1.30
2017-04-26T13:08:10.454Z,1.37